createdAt,value
2023-04-15T00:01:23.974Z,12.00
2023-04-15T00:03:55.848Z,10.20
2023-04-15T00:06:26.466Z,10.60
2023-04-15T00:08:57.241Z,9.70
2023-04-15T00:11:27.686Z,8.80
2023-04-15T00:13:58.702Z,8.50
2023-04-15T00:16:29.451Z,7.60
2023-04-15T00:19:00.114Z,7.60
2023-04-15T00:21:31.013Z,8.00
2023-04-15T00:24:01.996Z,8.00
2023-04-15T00:26:32.641Z,7.00
2023-04-15T00:29:03.527Z,7.00
2023-04-15T00:31:34.083Z,7.00
2023-04-15T00:34:04.791Z,7.70
2023-04-15T00:36:35.831Z,8.40
2023-04-15T00:39:06.376Z,7.80
2023-04-15T00:41:39.282Z,7.50
2023-04-15T00:44:10.571Z,7.50
2023-04-15T00:46:42.710Z,6.70
2023-04-15T00:49:13.238Z,7.80
2023-04-15T00:51:43.725Z,7.80
2023-04-15T00:54:14.760Z,7.80
2023-04-15T00:56:45.227Z,7.90
2023-04-15T00:59:17.766Z,7.10
2023-04-15T01:01:49.196Z,6.20
2023-04-15T01:04:20.239Z,6.90
2023-04-15T01:06:51.456Z,7.10
2023-04-15T01:09:22.342Z,7.10
2023-04-15T01:11:54.854Z,7.10
2023-04-15T01:14:26.667Z,7.70
2023-04-15T01:16:57.620Z,7.20
2023-04-15T01:19:28.643Z,7.10
2023-04-15T01:21:59.225Z,7.10
2023-04-15T01:24:31.675Z,7.30
2023-04-15T01:27:02.505Z,7.20
2023-04-15T01:29:33.652Z,7.40
2023-04-15T01:32:04.589Z,7.00
2023-04-15T01:34:35.841Z,6.50
2023-04-15T01:37:06.990Z,6.70
2023-04-15T01:39:37.402Z,7.80
2023-04-15T01:42:07.975Z,7.00
2023-04-15T01:44:38.463Z,7.20
2023-04-15T01:47:08.924Z,7.50
2023-04-15T01:49:39.528Z,7.70
2023-04-15T01:52:10.478Z,6.90
2023-04-15T01:54:41.103Z,7.40
2023-04-15T01:57:11.832Z,7.10
2023-04-15T01:59:42.329Z,7.30
2023-04-15T02:02:12.888Z,7.30
2023-04-15T02:04:43.475Z,7.10
2023-04-15T02:07:14.378Z,7.20
2023-04-15T02:09:46.225Z,7.20
2023-04-15T02:12:17.275Z,7.20
2023-04-15T02:14:48.596Z,6.80
2023-04-15T02:17:19.642Z,7.30
2023-04-15T02:19:50.498Z,7.10
2023-04-15T02:22:20.990Z,7.50
2023-04-15T02:24:51.493Z,7.40
2023-04-15T02:27:22.703Z,7.70
2023-04-15T02:29:54.151Z,7.30
2023-04-15T02:32:24.692Z,7.10
2023-04-15T02:34:57.462Z,7.20
2023-04-15T02:37:28.915Z,7.50
2023-04-15T02:39:59.859Z,7.10
2023-04-15T02:42:32.136Z,6.90
2023-04-15T02:45:03.843Z,7.80
2023-04-15T02:47:36.748Z,7.50
2023-04-15T02:50:12.890Z,8.30
2023-04-15T02:52:44.824Z,7.50
2023-04-15T02:55:15.387Z,8.10
2023-04-15T02:57:45.912Z,8.40
2023-04-15T03:00:17.515Z,7.90
2023-04-15T03:02:52.508Z,8.40
2023-04-15T03:05:24.751Z,8.40
2023-04-15T03:10:24.824Z,8.30
2023-04-15T03:12:55.730Z,8.50
2023-04-15T03:15:27.326Z,8.60
2023-04-15T03:17:58.134Z,8.90
2023-04-15T03:20:28.699Z,8.50
2023-04-15T03:22:59.216Z,8.40
2023-04-15T03:25:29.755Z,8.70
2023-04-15T03:28:01.115Z,9.50
2023-04-15T03:30:31.666Z,9.30
2023-04-15T03:33:02.190Z,9.10
2023-04-15T03:35:33.095Z,9.00
2023-04-15T03:38:03.549Z,9.00
2023-04-15T03:40:34.272Z,9.60
2023-04-15T03:43:04.751Z,9.40
2023-04-15T03:45:35.846Z,8.50
2023-04-15T03:48:17.072Z,8.90
2023-04-15T03:50:48.556Z,7.80
2023-04-15T03:53:18.985Z,6.70
2023-04-15T03:55:49.447Z,6.60
2023-04-15T03:58:19.912Z,6.60
2023-04-15T04:00:51.070Z,6.30
2023-04-15T04:03:22.006Z,6.10
2023-04-15T04:05:52.730Z,6.00
2023-04-15T04:08:23.137Z,5.60
2023-04-15T04:10:53.623Z,4.30
2023-04-15T04:13:24.070Z,4.80
2023-04-15T04:15:54.573Z,3.50
2023-04-15T04:18:25.503Z,3.30
2023-04-15T04:20:56.251Z,2.80
2023-04-15T04:23:26.749Z,2.80
2023-04-15T04:25:57.171Z,2.20
2023-04-15T04:28:27.663Z,2.10
2023-04-15T04:30:58.532Z,2.10
2023-04-15T04:33:28.983Z,2.00
2023-04-15T04:35:59.395Z,2.30
2023-04-15T04:38:29.898Z,2.00
2023-04-15T04:41:00.508Z,2.20
2023-04-15T04:43:31.055Z,2.50
2023-04-15T04:46:01.526Z,1.90
2023-04-15T04:48:32.170Z,1.70
2023-04-15T04:51:03.134Z,2.20
2023-04-15T04:53:33.820Z,1.40
2023-04-15T04:56:04.378Z,1.30
2023-04-15T04:58:34.889Z,1.70
2023-04-15T05:01:05.823Z,1.50
2023-04-15T05:03:36.833Z,1.20
2023-04-15T05:06:08.972Z,1.30
2023-04-15T05:11:11.216Z,1.40
2023-04-15T05:13:41.657Z,1.10
2023-04-15T05:16:12.505Z,1.20
2023-04-15T05:18:43.137Z,1.10
2023-04-15T05:21:13.989Z,1.10
2023-04-15T05:23:44.475Z,1.20
2023-04-15T05:26:14.951Z,1.10
2023-04-15T05:28:45.448Z,1.20
2023-04-15T05:31:16.215Z,6.10
2023-04-15T05:33:46.853Z,2.70
2023-04-15T05:36:17.588Z,1.80
2023-04-15T05:38:48.174Z,1.60
2023-04-15T05:41:19.900Z,1.40
2023-04-15T05:43:50.640Z,1.40
2023-04-15T05:46:21.319Z,1.60
2023-04-15T05:48:52.208Z,1.20
2023-04-15T05:51:23.797Z,1.30
2023-04-15T05:53:54.240Z,1.00
2023-04-15T05:56:26.805Z,1.00
2023-04-15T05:58:57.268Z,1.10
2023-04-15T06:01:27.729Z,1.20
2023-04-15T06:03:58.623Z,1.20
2023-04-15T06:06:29.401Z,0.90
2023-04-15T06:08:59.895Z,1.00
2023-04-15T06:11:30.946Z,1.20
2023-04-15T06:14:01.498Z,1.30
2023-04-15T06:16:32.330Z,1.00
2023-04-15T06:19:03.108Z,1.00
2023-04-15T06:21:34.092Z,2.50
2023-04-15T06:24:04.856Z,1.10
2023-04-15T06:26:35.665Z,1.00
2023-04-15T06:29:06.299Z,1.10
2023-04-15T06:31:36.848Z,1.00
2023-04-15T06:34:07.460Z,1.20
2023-04-15T06:36:37.909Z,1.00
2023-04-15T06:39:08.922Z,0.80
2023-04-15T06:41:39.553Z,1.00
2023-04-15T06:44:10.089Z,1.00
2023-04-15T06:46:40.605Z,1.00
2023-04-15T06:49:11.574Z,1.00
2023-04-15T06:51:43.516Z,1.10
2023-04-15T06:54:13.970Z,1.10
2023-04-15T06:56:44.406Z,1.20
2023-04-15T06:59:15.522Z,1.00
2023-04-15T07:01:46.643Z,1.20
2023-04-15T07:04:17.239Z,1.20
2023-04-15T07:06:47.695Z,1.10
2023-04-15T07:09:18.200Z,1.10
2023-04-15T07:11:49.086Z,0.90
2023-04-15T07:14:19.831Z,0.90
2023-04-15T07:16:50.911Z,1.00
2023-04-15T07:19:21.906Z,1.30
2023-04-15T07:21:52.559Z,0.90
2023-04-15T07:24:26.749Z,1.10
2023-04-15T07:27:00.839Z,1.00
2023-04-15T07:29:32.223Z,1.00
2023-04-15T07:32:02.702Z,1.00
2023-04-15T07:34:33.227Z,0.90
2023-04-15T07:37:03.718Z,0.90
2023-04-15T07:39:34.220Z,1.10
2023-04-15T07:42:04.961Z,1.30
2023-04-15T07:44:35.746Z,1.70
2023-04-15T07:47:06.851Z,1.50
2023-04-15T07:49:37.573Z,1.40
2023-04-15T07:52:08.569Z,1.40
2023-04-15T07:54:39.977Z,1.70
2023-04-15T07:57:10.715Z,1.90
2023-04-15T07:59:41.853Z,1.60
2023-04-15T08:02:13.652Z,1.30
2023-04-15T08:04:44.375Z,1.20
2023-04-15T08:07:15.079Z,1.10
2023-04-15T08:09:46.349Z,1.20
2023-04-15T08:12:17.161Z,0.80
2023-04-15T08:14:47.679Z,0.70
2023-04-15T08:17:18.207Z,1.00
2023-04-15T08:19:49.338Z,0.90
2023-04-15T08:22:21.197Z,0.90
2023-04-15T08:24:52.986Z,3.10
2023-04-15T08:27:23.535Z,2.10
2023-04-15T08:29:54.145Z,1.40
2023-04-15T08:32:26.313Z,1.10
2023-04-15T08:34:56.946Z,1.00
2023-04-15T08:37:27.854Z,1.10
2023-04-15T08:39:58.378Z,0.80
2023-04-15T08:42:32.711Z,0.80
2023-04-15T08:45:05.312Z,0.90
2023-04-15T08:47:37.560Z,0.80
2023-04-15T08:50:11.920Z,1.20
2023-04-15T08:52:42.535Z,0.90
2023-04-15T08:55:15.418Z,1.10
2023-04-15T08:57:45.946Z,0.90
2023-04-15T09:00:18.216Z,0.90
2023-04-15T09:02:49.043Z,0.80
2023-04-15T09:05:21.658Z,1.00
2023-04-15T09:07:53.047Z,0.90
2023-04-15T09:10:23.923Z,0.80
2023-04-15T09:12:54.472Z,0.70
2023-04-15T09:15:29.560Z,0.80
2023-04-15T09:18:00.092Z,1.10
2023-04-15T09:20:31.214Z,0.70
2023-04-15T09:23:02.322Z,1.00
2023-04-15T09:25:34.975Z,0.90
2023-04-15T09:28:06.316Z,0.70
2023-04-15T09:30:37.440Z,1.20
2023-04-15T09:33:11.033Z,1.10
2023-04-15T09:35:41.619Z,0.90
2023-04-15T09:38:12.894Z,0.90
2023-04-15T09:40:44.037Z,1.00
2023-04-15T09:43:14.498Z,0.80
2023-04-15T09:45:51.013Z,0.80
2023-04-15T09:48:23.624Z,0.90
2023-04-15T09:50:54.963Z,0.50
2023-04-15T09:53:26.596Z,0.90
2023-04-15T09:55:59.143Z,0.80
2023-04-15T09:58:30.944Z,0.70
2023-04-15T10:01:04.053Z,0.70
2023-04-15T10:03:37.584Z,0.90
2023-04-15T10:06:09.414Z,0.80
2023-04-15T10:08:41.751Z,0.80
2023-04-15T10:11:14.122Z,0.90
2023-04-15T10:13:44.858Z,0.70
2023-04-15T10:16:20.823Z,0.60
2023-04-15T10:18:59.126Z,0.80
2023-04-15T10:21:32.230Z,0.50
2023-04-15T10:24:04.925Z,0.70
2023-04-15T10:26:35.862Z,0.60
2023-04-15T10:29:06.823Z,0.60
2023-04-15T10:31:38.486Z,0.80
2023-04-15T10:34:09.961Z,0.70
2023-04-15T10:36:40.620Z,0.60
2023-04-15T10:39:42.883Z,0.50
2023-04-15T10:42:15.372Z,0.60
2023-04-15T10:44:49.455Z,0.50
2023-04-15T10:47:22.107Z,0.60
2023-04-15T10:49:58.051Z,1.10
2023-04-15T10:52:30.386Z,0.80
2023-04-15T10:55:16.996Z,1.10
2023-04-15T10:57:47.897Z,0.70
2023-04-15T11:00:19.919Z,0.70
2023-04-15T11:05:21.873Z,0.70
2023-04-15T11:07:54.990Z,0.80
2023-04-15T11:10:57.735Z,0.80
2023-04-15T11:13:31.379Z,0.80
2023-04-15T11:16:03.844Z,0.90
2023-04-15T11:18:35.742Z,1.30
2023-04-15T11:21:09.458Z,0.80
2023-04-15T11:23:44.396Z,0.90
2023-04-15T11:26:15.671Z,1.00
2023-04-15T11:28:47.613Z,1.10
2023-04-15T11:31:20.132Z,1.20
2023-04-15T11:33:59.518Z,1.10
2023-04-15T11:36:31.824Z,1.10
2023-04-15T11:39:02.961Z,1.60
2023-04-15T11:41:33.473Z,1.20
2023-04-15T11:44:04.222Z,1.10
2023-04-15T11:46:34.969Z,1.10
2023-04-15T11:49:06.012Z,1.00
2023-04-15T11:51:37.204Z,1.10
2023-04-15T11:54:07.908Z,1.00
2023-04-15T11:56:39.138Z,0.80
2023-04-15T11:59:09.664Z,1.50
2023-04-15T12:01:44.092Z,1.70
2023-04-15T12:04:24.249Z,1.10
2023-04-15T12:06:55.973Z,1.00
2023-04-15T12:09:27.181Z,0.70
2023-04-15T12:12:00.397Z,0.90
2023-04-15T12:14:32.202Z,0.80
2023-04-15T12:17:04.945Z,0.60
2023-04-15T12:19:38.806Z,0.90
2023-04-15T12:22:11.979Z,0.90
2023-04-15T12:24:44.031Z,1.00
2023-04-15T12:27:17.013Z,0.90
2023-04-15T12:29:47.728Z,0.80
2023-04-15T12:32:21.021Z,0.90
2023-04-15T12:34:55.309Z,0.70
2023-04-15T12:37:26.213Z,0.90
2023-04-15T12:39:56.754Z,0.80
2023-04-15T12:42:27.586Z,1.50
2023-04-15T12:45:58.932Z,2.80
2023-04-15T12:48:29.467Z,1.60
2023-04-15T12:50:59.996Z,1.10
2023-04-15T12:53:31.345Z,0.80
2023-04-15T12:56:02.418Z,1.00
2023-04-15T12:58:33.429Z,1.00
2023-04-15T13:01:04.062Z,0.90
2023-04-15T13:03:34.697Z,0.90
2023-04-15T13:06:06.148Z,0.80
2023-04-15T13:08:38.563Z,0.90
2023-04-15T13:11:11.749Z,1.00
2023-04-15T13:13:42.220Z,0.80
2023-04-15T13:16:12.704Z,0.90
2023-04-15T13:18:43.404Z,0.70
2023-04-15T13:21:14.448Z,0.90
2023-04-15T13:23:45.283Z,1.00
2023-04-15T13:26:16.715Z,1.00
2023-04-15T13:28:47.624Z,0.90
2023-04-15T13:31:18.109Z,1.00
2023-04-15T13:33:48.735Z,0.80
2023-04-15T13:36:19.367Z,0.80
2023-04-15T13:38:51.234Z,0.90
2023-04-15T13:41:22.186Z,0.90
2023-04-15T13:43:52.677Z,1.00
2023-04-15T13:46:23.238Z,0.90
2023-04-15T13:48:54.474Z,0.80
2023-04-15T13:51:24.971Z,1.00
2023-04-15T13:53:55.701Z,1.10
2023-04-15T13:56:26.288Z,0.80
2023-04-15T13:58:59.032Z,0.70
2023-04-15T14:01:29.669Z,0.80
2023-04-15T14:04:00.299Z,0.70
2023-04-15T14:06:31.851Z,1.00
2023-04-15T14:09:02.568Z,1.00
2023-04-15T14:11:35.468Z,0.90
2023-04-15T14:14:06.559Z,1.10
2023-04-15T14:16:37.397Z,0.90
2023-04-15T14:19:08.054Z,0.90
2023-04-15T14:21:38.774Z,0.90
2023-04-15T14:24:09.811Z,0.80
2023-04-15T14:26:41.763Z,0.80
2023-04-15T14:31:42.279Z,0.90
2023-04-15T14:34:32.778Z,1.40
2023-04-15T14:37:03.846Z,1.40
2023-04-15T14:39:34.782Z,1.10
2023-04-15T14:42:05.490Z,1.20
2023-04-15T14:44:36.154Z,1.30
2023-04-15T14:47:06.745Z,1.10
2023-04-15T14:49:37.231Z,0.80
2023-04-15T14:52:07.754Z,1.00
2023-04-15T14:54:38.236Z,0.90
2023-04-15T14:57:09.119Z,0.80
2023-04-15T14:59:39.621Z,0.80
2023-04-15T15:02:12.894Z,1.00
2023-04-15T15:04:45.901Z,1.00
2023-04-15T15:07:16.487Z,1.00
2023-04-15T15:09:46.945Z,1.10
2023-04-15T15:12:17.441Z,0.90
2023-04-15T15:14:47.941Z,1.10
2023-04-15T15:17:18.464Z,1.10
2023-04-15T15:19:49.083Z,1.30
2023-04-15T15:22:21.347Z,1.10
2023-04-15T15:24:52.596Z,1.40
2023-04-15T15:27:23.104Z,1.50
2023-04-15T15:29:53.536Z,6.90
2023-04-15T15:32:24.070Z,2.20
2023-04-15T15:34:54.680Z,1.10
2023-04-15T15:37:25.447Z,1.20
2023-04-15T15:39:56.292Z,1.30
2023-04-15T15:42:26.723Z,1.40
2023-04-15T15:44:57.448Z,1.30
2023-04-15T15:47:28.147Z,1.20
2023-04-15T15:49:58.897Z,1.30
2023-04-15T15:52:29.652Z,1.20
2023-04-15T15:55:00.492Z,1.20
2023-04-15T15:57:30.982Z,1.50
2023-04-15T16:00:11.393Z,1.30
2023-04-15T16:05:19.033Z,1.20
2023-04-15T16:07:49.830Z,1.10
2023-04-15T16:10:20.287Z,1.40
2023-04-15T16:12:51.042Z,1.30
2023-04-15T16:15:21.650Z,1.60
2023-04-15T16:17:52.297Z,4.10
2023-04-15T16:20:22.966Z,1.50
2023-04-15T16:22:53.624Z,1.20
2023-04-15T16:25:24.170Z,1.30
2023-04-15T16:28:05.382Z,1.30
2023-04-15T16:30:40.493Z,1.60
2023-04-15T16:33:11.136Z,1.50
2023-04-15T16:35:41.639Z,19.40
2023-04-15T16:38:12.133Z,8.30
2023-04-15T16:40:42.613Z,2.20
2023-04-15T16:43:13.095Z,1.40
2023-04-15T16:45:44.527Z,1.40
2023-04-15T16:48:15.202Z,1.40
2023-04-15T16:50:46.140Z,1.40
2023-04-15T16:53:17.388Z,1.40
2023-04-15T16:55:47.926Z,1.40
2023-04-15T16:58:18.410Z,1.40
2023-04-15T17:00:48.980Z,1.40
2023-04-15T17:03:19.672Z,5.80
2023-04-15T17:05:50.443Z,7.80
2023-04-15T17:08:21.078Z,4.10
2023-04-15T17:10:51.865Z,2.10
2023-04-15T17:13:22.406Z,1.40
2023-04-15T17:15:55.116Z,1.30
2023-04-15T17:18:26.471Z,1.50
2023-04-15T17:20:57.818Z,1.40
2023-04-15T17:23:28.698Z,1.70
2023-04-15T17:25:59.258Z,1.70
2023-04-15T17:28:29.767Z,1.30
2023-04-15T17:31:00.280Z,1.60
2023-04-15T17:33:55.905Z,1.90
2023-04-15T17:36:21.254Z,1.80
2023-04-15T17:38:51.747Z,1.70
2023-04-15T17:41:22.341Z,2.10
2023-04-15T17:43:53.074Z,2.10
2023-04-15T17:46:23.634Z,2.40
2023-04-15T17:48:54.124Z,2.40
2023-04-15T17:51:24.735Z,2.50
2023-04-15T17:54:10.351Z,2.40
2023-04-15T17:56:40.869Z,2.30
2023-04-15T17:59:11.797Z,2.80
2023-04-15T18:01:42.468Z,2.60
2023-04-15T18:04:13.336Z,2.60
2023-04-15T18:06:44.088Z,2.40
2023-04-15T18:09:14.573Z,2.80
2023-04-15T18:11:45.308Z,2.80
2023-04-15T18:14:27.120Z,2.90
2023-04-15T18:17:04.852Z,2.80
2023-04-15T18:19:35.625Z,3.40
2023-04-15T18:22:06.342Z,3.60
2023-04-15T18:24:36.799Z,4.90
2023-04-15T18:27:07.521Z,4.50
2023-04-15T18:29:38.517Z,5.10
2023-04-15T18:32:08.972Z,5.30
2023-04-15T18:34:39.665Z,5.90
2023-04-15T18:37:10.246Z,6.50
2023-04-15T18:39:40.745Z,6.50
2023-04-15T18:42:11.311Z,6.20
2023-04-15T18:44:41.794Z,6.90
2023-04-15T18:47:12.284Z,6.60
2023-04-15T18:49:42.776Z,6.40
2023-04-15T18:52:13.353Z,6.90
2023-04-15T18:54:43.780Z,11.00
2023-04-15T18:57:14.346Z,8.50
2023-04-15T18:59:50.944Z,7.60
2023-04-15T19:02:21.717Z,8.00
2023-04-15T19:04:52.558Z,7.90
2023-04-15T19:07:23.400Z,7.90
2023-04-15T19:09:54.460Z,8.60
2023-04-15T19:12:25.090Z,7.60
2023-04-15T19:14:55.670Z,8.10
2023-04-15T19:17:26.664Z,7.00
2023-04-15T19:19:57.937Z,8.20
2023-04-15T19:22:30.906Z,7.60
2023-04-15T19:25:01.442Z,7.60
2023-04-15T19:27:41.261Z,8.30
2023-04-15T19:30:12.389Z,7.80
2023-04-15T19:32:43.081Z,7.60
2023-04-15T19:35:13.948Z,8.40
2023-04-15T19:37:44.724Z,8.70
2023-04-15T19:40:15.701Z,7.90
2023-04-15T19:42:46.367Z,7.40
2023-04-15T19:45:17.269Z,7.90
2023-04-15T19:47:48.428Z,8.20
2023-04-15T19:50:24.636Z,8.30
2023-04-15T19:52:55.336Z,7.40
2023-04-15T19:55:25.874Z,8.20
2023-04-15T19:57:57.136Z,8.30
2023-04-15T20:00:27.757Z,8.70
2023-04-15T20:03:21.505Z,7.60
2023-04-15T20:05:52.898Z,9.00
2023-04-15T20:08:23.654Z,8.40
2023-04-15T20:10:54.760Z,8.80
2023-04-15T20:13:25.355Z,7.70
2023-04-15T20:15:55.902Z,7.60
2023-04-15T20:18:26.606Z,8.40
2023-04-15T20:20:57.224Z,10.90
2023-04-15T20:23:28.220Z,8.90
2023-04-15T20:25:58.775Z,7.40
2023-04-15T20:32:56.141Z,7.50
2023-04-15T20:35:31.028Z,7.50
2023-04-15T20:38:02.710Z,7.30
2023-04-15T20:40:33.857Z,8.20
2023-04-15T20:43:04.549Z,7.20
2023-04-15T20:45:35.085Z,7.50
2023-04-15T20:48:06.424Z,6.80
2023-04-15T20:50:37.059Z,7.70
2023-04-15T20:53:07.693Z,6.90
2023-04-15T20:55:44.705Z,7.10
2023-04-15T20:58:15.301Z,7.00
2023-04-15T21:00:46.565Z,7.50
2023-04-15T21:03:17.375Z,7.60
2023-04-15T21:05:48.106Z,7.90
2023-04-15T21:08:18.672Z,8.30
2023-04-15T21:10:49.160Z,19.50
2023-04-15T21:13:19.984Z,11.00
2023-04-15T21:15:54.116Z,8.60
2023-04-15T21:18:25.050Z,7.50
2023-04-15T21:21:01.882Z,7.60
2023-04-15T21:23:35.978Z,7.70
2023-04-15T21:26:06.584Z,8.20
2023-04-15T21:28:37.203Z,9.00
2023-04-15T21:31:07.821Z,8.40
2023-04-15T21:33:38.342Z,8.10
2023-04-15T21:36:09.287Z,8.40
2023-04-15T21:38:39.962Z,17.00
2023-04-15T21:41:10.576Z,18.40
2023-04-15T21:43:44.831Z,19.50
2023-04-15T21:46:23.723Z,11.90
2023-04-15T21:48:56.702Z,9.00
2023-04-15T21:51:27.777Z,8.70
2023-04-15T21:53:58.283Z,8.80
2023-04-15T21:56:28.925Z,8.60
2023-04-15T21:59:03.683Z,8.50
2023-04-15T22:01:34.448Z,8.60
2023-04-15T22:04:06.106Z,8.20
2023-04-15T22:06:36.693Z,8.60
2023-04-15T22:09:07.268Z,8.90
2023-04-15T22:11:37.736Z,9.00
2023-04-15T22:14:08.181Z,10.00
2023-04-15T22:16:38.773Z,9.80
2023-04-15T22:19:09.833Z,9.50
2023-04-15T22:21:40.379Z,9.10
2023-04-15T22:24:33.356Z,9.70
2023-04-15T22:29:31.076Z,9.70
2023-04-15T22:32:01.928Z,10.00
2023-04-15T22:34:32.428Z,9.60
2023-04-15T22:37:02.918Z,10.20
2023-04-15T22:39:33.378Z,10.70
2023-04-15T22:42:03.963Z,10.30
2023-04-15T22:44:34.369Z,9.80
2023-04-15T22:47:04.856Z,10.50
2023-04-15T22:49:36.328Z,10.40
2023-04-15T22:52:07.971Z,10.50
2023-04-15T22:54:39.588Z,10.50
2023-04-15T22:57:10.325Z,10.20
2023-04-15T22:59:40.785Z,11.40
2023-04-15T23:02:11.605Z,10.80
2023-04-15T23:04:42.138Z,9.90
2023-04-15T23:07:12.936Z,10.20
2023-04-15T23:09:43.405Z,10.10
2023-04-15T23:12:14.446Z,11.10
2023-04-15T23:14:44.930Z,11.30
2023-04-15T23:17:15.635Z,10.90
2023-04-15T23:19:46.352Z,11.00
2023-04-15T23:22:16.953Z,10.80
2023-04-15T23:24:47.476Z,12.00
2023-04-15T23:27:19.093Z,11.00
2023-04-15T23:29:49.584Z,11.00
2023-04-15T23:32:20.036Z,12.10
2023-04-15T23:34:52.308Z,12.30
2023-04-15T23:37:22.875Z,16.80
2023-04-15T23:39:53.421Z,24.40
2023-04-15T23:42:24.287Z,28.30
2023-04-15T23:44:54.797Z,31.00
2023-04-15T23:47:26.080Z,16.40
2023-04-15T23:49:56.592Z,13.40
2023-04-15T23:52:27.221Z,13.20
2023-04-15T23:54:57.699Z,13.90
2023-04-15T23:57:28.295Z,13.40
2023-04-15T23:59:58.846Z,13.80
